| time (UTC) | temp C | wind direction | speed KPH | gust KPH | rain 1hr cm | rain 24hr cm | rain mn cm | humidity % | barometer mb |
| 20260507160108 | 16 | 279 | 8.0 | 16.1 | 0.00 | 0.48 | 0.10 | 46 | 1006.7 |
| 20260507154539 | 15 | 233 | 4.8 | 14.5 | 0.00 | 0.48 | 0.10 | 53 | 1006.9 |
| 20260507153038 | 16 | 187 | 4.8 | 16.1 | 0.00 | 0.48 | 0.10 | 56 | 1007.0 |
| 20260507151535 | 15 | 259 | 3.2 | 17.7 | 0.00 | 0.48 | 0.10 | 58 | 1007.1 |
| 20260507150043 | 15 | 28 | 4.8 | 12.9 | 0.00 | 0.48 | 0.10 | 59 | 1007.2 |
| 20260507144539 | 14 | 275 | 1.6 | 11.3 | 0.00 | 0.48 | 0.10 | 65 | 1007.3 |
| 20260507143039 | 13 | 5 | 3.2 | 12.9 | 0.00 | 0.48 | 0.10 | 66 | 1007.5 |
| 20260507141538 | 13 | 237 | 3.2 | 19.3 | 0.00 | 0.48 | 0.10 | 66 | 1007.6 |
| 20260507140045 | 13 | 273 | 0.0 | 14.5 | 0.00 | 0.48 | 0.10 | 68 | 1007.7 |
| 20260507134542 | 13 | 281 | 3.2 | 14.5 | 0.00 | 0.48 | 0.10 | 70 | 1007.3 |
| 20260507133040 | 13 | 207 | 4.8 | 14.5 | 0.00 | 0.48 | 0.10 | 70 | 1007.4 |
| 20260507131607 | 12 | 171 | 4.8 | 12.9 | 0.00 | 0.48 | 0.10 | 69 | 1007.6 |
| 20260507130039 | 12 | 53 | 4.8 | 16.1 | 0.00 | 0.48 | 0.10 | 71 | 1007.6 |
| 20260507124546 | 11 | 0 | 1.6 | 12.9 | 0.00 | 0.48 | 0.10 | 79 | 1007.8 |
| 20260507123042 | 10 | 0 | 1.6 | 8.0 | 0.00 | 0.48 | 0.10 | 81 | 1007.8 |
| 20260507121541 | 10 | 244 | 1.6 | 11.3 | 0.00 | 0.48 | 0.10 | 82 | 1007.9 |
| 20260507120042 | 10 | 321 | 3.2 | 8.0 | 0.00 | 0.48 | 0.10 | 85 | 1007.8 |
| 20260507114540 | 9 | 295 | 0.0 | 4.8 | 0.00 | 0.48 | 0.10 | 90 | 1007.9 |
| 20260507113102 | 8 | 0 | 0.0 | 3.2 | 0.00 | 0.48 | 0.10 | 93 | 1007.7 |
| 20260507111538 | 8 | 0 | 0.0 | 1.6 | 0.00 | 0.48 | 0.10 | 94 | 1007.7 |
| 20260507110040 | 8 | 0 | 0.0 | 1.6 | 0.00 | 0.48 | 0.10 | 94 | 1007.5 |
| 20260507104552 | 8 | 0 | 0.0 | 1.6 | 0.03 | 0.48 | 0.10 | 94 | 1007.6 |
| 20260507103040 | 8 | 0 | 0.0 | 1.6 | 0.03 | 0.48 | 0.10 | 93 | 1007.5 |
| 20260507101538 | 8 | 0 | 0.0 | 1.6 | 0.03 | 0.48 | 0.10 | 92 | 1007.1 |
| 20260507100051 | 8 | 0 | 0.0 | 1.6 | 0.03 | 0.48 | 0.10 | 93 | 1006.8 |
| 20260507094540 | 8 | 297 | 0.0 | 3.2 | 0.03 | 0.46 | 0.08 | 92 | 1006.8 |
| 20260507093043 | 8 | 200 | 0.0 | 3.2 | 0.03 | 0.46 | 0.08 | 91 | 1007.0 |
| 20260507091544 | 8 | 0 | 0.0 | 3.2 | 0.03 | 0.46 | 0.08 | 91 | 1007.2 |
| 20260507090040 | 8 | 0 | 0.0 | 3.2 | 0.03 | 0.46 | 0.08 | 90 | 1007.3 |
| 20260507084551 | 8 | 241 | 0.0 | 3.2 | 0.00 | 0.43 | 0.05 | 89 | 1007.4 |
| 20260507083044 | 8 | 0 | 0.0 | 4.8 | 0.03 | 0.43 | 0.05 | 89 | 1007.1 |
| 20260507081543 | 8 | 285 | 0.0 | 9.7 | 0.03 | 0.43 | 0.05 | 89 | 1006.9 |
| 20260507080052 | 9 | 294 | 0.0 | 8.0 | 0.03 | 0.43 | 0.05 | 89 | 1007.0 |
| 20260507074545 | 10 | 250 | 1.6 | 9.7 | 0.03 | 0.43 | 0.05 | 87 | 1007.3 |
| 20260507073036 | 10 | 290 | 0.0 | 6.4 | 0.00 | 0.41 | 0.03 | 86 | 1006.9 |
| 20260507071546 | 10 | 39 | 1.6 | 4.8 | 0.00 | 0.41 | 0.03 | 86 | 1006.6 |
| 20260507070054 | 10 | 350 | 0.0 | 6.4 | 0.00 | 0.41 | 0.03 | 86 | 1006.2 |
| 20260507064546 | 10 | 0 | 0.0 | 11.3 | 0.00 | 0.41 | 0.03 | 86 | 1006.0 |
| 20260507063039 | 11 | 225 | 0.0 | 3.2 | 0.00 | 0.41 | 0.03 | 88 | 1006.1 |
| 20260507061540 | 11 | 240 | 0.0 | 9.7 | 0.00 | 0.41 | 0.03 | 88 | 1006.2 |
| 20260507060040 | 11 | 277 | 1.6 | 6.4 | 0.00 | 0.41 | 0.03 | 87 | 1006.2 |
| 20260507054540 | 12 | 0 | 0.0 | 6.4 | 0.00 | 0.41 | 0.03 | 88 | 1006.2 |
| 20260507053040 | 12 | 0 | 1.6 | 9.7 | 0.00 | 0.41 | 0.03 | 89 | 1006.5 |
| 20260507051541 | 12 | 86 | 0.0 | 6.4 | 0.03 | 0.41 | 0.03 | 90 | 1006.6 |
| 20260507050100 | 12 | 258 | 3.2 | 11.3 | 0.03 | 0.41 | 0.03 | 91 | 1006.4 |
| 20260507044549 | 12 | 261 | 0.0 | 6.4 | 0.03 | 0.41 | 0.03 | 92 | 1006.4 |
| 20260507043044 | 13 | 232 | 1.6 | 9.7 | 0.03 | 0.41 | 0.03 | 91 | 1006.3 |
| 20260507041537 | 13 | 0 | 1.6 | 11.3 | 0.00 | 0.38 | 0.00 | 91 | 1006.4 |
| 20260507040045 | 13 | 0 | 1.6 | 12.9 | 0.00 | 0.38 | 0.00 | 91 | 1006.2 |
| 20260507034541 | 13 | 261 | 1.6 | 14.5 | 0.00 | 0.38 | 0.38 | 92 | 1006.5 |
| 20260507033042 | 14 | 279 | 1.6 | 12.9 | 0.00 | 0.38 | 0.38 | 94 | 1005.8 |
| 20260507031537 | 14 | 275 | 1.6 | 11.3 | 0.00 | 0.38 | 0.38 | 94 | 1005.7 |
| 20260507030038 | 15 | 281 | 1.6 | 4.8 | 0.00 | 0.38 | 0.38 | 95 | 1005.6 |
| 20260507024546 | 15 | 271 | 1.6 | 8.0 | 0.00 | 0.38 | 0.38 | 94 | 1005.2 |
| 20260507023040 | 14 | 157 | 1.6 | 14.5 | 0.00 | 0.38 | 0.38 | 95 | 1005.3 |
| 20260507021550 | 14 | 0 | 1.6 | 14.5 | 0.00 | 0.38 | 0.38 | 94 | 1005.4 |
| 20260507020040 | 14 | 0 | 0.0 | 8.0 | 0.00 | 0.38 | 0.38 | 94 | 1005.3 |
| 20260507014537 | 14 | 223 | 1.6 | 11.3 | 0.00 | 0.38 | 0.38 | 95 | 1005.3 |
| 20260507013038 | 14 | 0 | 1.6 | 8.0 | 0.00 | 0.38 | 0.38 | 95 | 1005.3 |
| 20260507011545 | 14 | 174 | 1.6 | 11.3 | 0.00 | 0.38 | 0.38 | 95 | 1005.3 |
| 20260507010045 | 14 | 198 | 1.6 | 9.7 | 0.00 | 0.38 | 0.38 | 95 | 1005.4 |
| 20260507004540 | 14 | 208 | 0.0 | 6.4 | 0.00 | 0.38 | 0.38 | 95 | 1005.5 |
| 20260507003040 | 14 | 159 | 0.0 | 11.3 | 0.03 | 0.38 | 0.38 | 95 | 1005.4 |
| 20260507001542 | 14 | 129 | 3.2 | 14.5 | 0.03 | 0.38 | 0.38 | 94 | 1005.3 |
| 20260507000042 | 14 | 0 | 1.6 | 9.7 | 0.05 | 0.38 | 0.38 | 94 | 1005.2 |
| 20260506234550 | 14 | 0 | 1.6 | 8.0 | 0.13 | 0.38 | 0.38 | 95 | 1005.1 |
| 20260506233038 | 15 | 142 | 0.0 | 9.7 | 0.10 | 0.36 | 0.36 | 94 | 1005.2 |
| 20260506231539 | 15 | 0 | 0.0 | 11.3 | 0.10 | 0.36 | 0.36 | 94 | 1005.0 |
| 20260506230037 | 15 | 175 | 1.6 | 11.3 | 0.08 | 0.33 | 0.33 | 94 | 1005.0 |
| 20260506224536 | 15 | 0 | 0.0 | 8.0 | 0.03 | 0.25 | 0.25 | 94 | 1005.3 |
| 20260506223047 | 15 | 155 | 3.2 | 9.7 | 0.03 | 0.25 | 0.25 | 93 | 1005.3 |
| 20260506221539 | 15 | 0 | 0.0 | 9.7 | 0.03 | 0.25 | 0.25 | 93 | 1005.3 |
| 20260506220038 | 15 | 184 | 0.0 | 6.4 | 0.03 | 0.25 | 0.25 | 93 | 1005.5 |
| 20260506214540 | 15 | 15 | 1.6 | 12.9 | 0.03 | 0.23 | 0.23 | 92 | 1005.5 |
| 20260506213042 | 15 | 188 | 0.0 | 9.7 | 0.03 | 0.23 | 0.23 | 92 | 1005.8 |
| 20260506211543 | 15 | 0 | 1.6 | 11.3 | 0.03 | 0.23 | 0.23 | 92 | 1005.9 |
| 20260506210041 | 15 | 226 | 1.6 | 16.1 | 0.05 | 0.23 | 0.23 | 92 | 1005.9 |
| 20260506204550 | 15 | 63 | 3.2 | 12.9 | 0.05 | 0.20 | 0.20 | 92 | 1006.1 |
| 20260506203037 | 15 | 212 | 1.6 | 24.1 | 0.05 | 0.20 | 0.20 | 92 | 1006.2 |
| 20260506201539 | 15 | 256 | 3.2 | 12.9 | 0.10 | 0.20 | 0.20 | 91 | 1006.1 |
| 20260506200057 | 15 | 102 | 3.2 | 16.1 | 0.13 | 0.18 | 0.18 | 90 | 1006.1 |
| 20260506194548 | 16 | 0 | 3.2 | 9.7 | 0.13 | 0.15 | 0.15 | 90 | 1006.2 |
| 20260506193038 | 16 | 0 | 1.6 | 12.9 | 0.15 | 0.15 | 0.15 | 88 | 1006.2 |
| 20260506191538 | 17 | 0 | 0.0 | 4.8 | 0.08 | 0.08 | 0.08 | 86 | 1006.1 |
| 20260506190039 | 17 | 140 | 0.0 | 12.9 | 0.05 | 0.05 | 0.05 | 83 | 1006.1 |
| 20260506184536 | 18 | 190 | 4.8 | 25.7 | 0.03 | 0.03 | 0.03 | 78 | 1006.4 |
| 20260506183057 | 19 | 193 | 1.6 | 12.9 | 0.00 | 0.00 | 0.00 | 76 | 1006.7 |
| 20260506181544 | 20 | 227 | 6.4 | 20.9 | 0.00 | 0.00 | 0.00 | 68 | 1006.5 |
| 20260506180041 | 21 | 273 | 4.8 | 43.5 | 0.00 | 0.00 | 0.00 | 63 | 1006.6 |
| 20260506174538 | 21 | 191 | 9.7 | 32.2 | 0.00 | 0.00 | 0.00 | 60 | 1006.5 |
| 20260506173037 | 22 | 177 | 9.7 | 29.0 | 0.00 | 0.00 | 0.00 | 58 | 1006.6 |
| 20260506171546 | 22 | 238 | 4.8 | 22.5 | 0.00 | 0.00 | 0.00 | 59 | 1006.8 |
| 20260506170046 | 23 | 184 | 3.2 | 25.7 | 0.00 | 0.00 | 0.00 | 57 | 1006.8 |
| 20260506164547 | 22 | 217 | 1.6 | 17.7 | 0.00 | 0.00 | 0.00 | 62 | 1006.9 |
| 20260506163038 | 21 | 216 | 6.4 | 19.3 | 0.00 | 0.00 | 0.00 | 61 | 1007.2 |
| 20260506161545 | 21 | 297 | 3.2 | 22.5 | 0.00 | 0.00 | 0.00 | 62 | 1007.3 |